createdAt,value
2018-06-17T00:01:19.082Z,22.08
2018-06-17T00:03:46.695Z,22.09
2018-06-17T00:06:14.278Z,22.11
2018-06-17T00:08:41.968Z,22.07
2018-06-17T00:11:09.619Z,21.98
2018-06-17T00:13:37.325Z,21.96
2018-06-17T00:16:05.061Z,21.99
2018-06-17T00:18:32.676Z,22.04
2018-06-17T00:21:00.378Z,22.03
2018-06-17T00:23:27.973Z,21.99
2018-06-17T00:25:55.662Z,21.97
2018-06-17T00:28:23.301Z,21.96
2018-06-17T00:30:50.904Z,21.96
2018-06-17T00:33:18.595Z,21.93
2018-06-17T00:35:46.128Z,21.91
2018-06-17T00:38:13.742Z,21.91
2018-06-17T00:40:41.379Z,21.89
2018-06-17T00:43:08.946Z,21.87
2018-06-17T00:45:37.159Z,21.77
2018-06-17T00:48:04.801Z,21.73
2018-06-17T00:50:32.298Z,21.76
2018-06-17T00:53:00.175Z,21.84
2018-06-17T00:55:27.730Z,21.84
2018-06-17T00:57:55.393Z,21.83
2018-06-17T01:00:23.588Z,21.82
2018-06-17T01:02:51.134Z,21.85
2018-06-17T01:05:18.886Z,21.84
2018-06-17T01:07:46.531Z,21.85
2018-06-17T01:10:14.162Z,21.86
2018-06-17T01:12:41.884Z,21.73
2018-06-17T01:15:09.428Z,21.69
2018-06-17T01:17:37.542Z,21.68
2018-06-17T01:20:05.536Z,21.70
2018-06-17T01:22:33.098Z,21.68
2018-06-17T01:25:00.983Z,21.77
2018-06-17T01:27:28.575Z,21.85
2018-06-17T01:29:56.187Z,21.85
2018-06-17T01:32:23.895Z,21.85
2018-06-17T01:34:51.435Z,21.93
2018-06-17T01:37:19.105Z,21.88
2018-06-17T01:39:46.655Z,21.89
2018-06-17T01:42:14.267Z,21.94
2018-06-17T01:44:41.955Z,21.88
2018-06-17T01:47:09.546Z,21.79
2018-06-17T01:49:37.246Z,21.76
2018-06-17T01:52:04.828Z,21.77
2018-06-17T01:54:32.351Z,21.68
2018-06-17T01:57:00.128Z,21.66
2018-06-17T01:59:27.670Z,21.69
2018-06-17T02:01:55.315Z,21.63
2018-06-17T02:04:28.479Z,21.71
2018-06-17T02:07:01.440Z,21.69
2018-06-17T02:09:34.374Z,21.65
2018-06-17T02:12:07.419Z,21.56
2018-06-17T02:14:40.354Z,21.51
2018-06-17T02:17:08.131Z,21.49
2018-06-17T02:19:35.851Z,21.42
2018-06-17T02:22:03.609Z,21.29
2018-06-17T02:24:31.334Z,21.32
2018-06-17T02:26:58.879Z,21.31
2018-06-17T02:29:26.415Z,21.32
2018-06-17T02:31:54.132Z,21.33
2018-06-17T02:34:21.650Z,21.31
2018-06-17T02:36:49.370Z,21.27
2018-06-17T02:39:16.883Z,21.24
2018-06-17T02:41:44.427Z,21.22
2018-06-17T02:44:12.215Z,21.17
2018-06-17T02:46:45.282Z,21.14
2018-06-17T02:49:18.499Z,21.09
2018-06-17T02:53:58.670Z,21.06
2018-06-17T02:56:26.276Z,20.95
2018-06-17T02:58:53.986Z,20.92
2018-06-17T03:01:21.515Z,20.92
2018-06-17T03:03:49.359Z,20.86
2018-06-17T03:06:16.881Z,20.81
2018-06-17T03:08:44.378Z,20.79
2018-06-17T03:11:12.067Z,20.75
2018-06-17T03:13:39.603Z,20.72
2018-06-17T03:16:07.446Z,20.70
2018-06-17T03:18:34.978Z,20.60
2018-06-17T03:21:02.543Z,20.55
2018-06-17T03:23:30.161Z,20.56
2018-06-17T03:26:03.240Z,20.55
2018-06-17T03:28:36.410Z,20.53
2018-06-17T03:31:21.524Z,20.54
2018-06-17T03:33:55.875Z,20.52
2018-06-17T03:36:23.482Z,20.53
2018-06-17T03:38:51.023Z,20.51
2018-06-17T03:41:18.743Z,20.53
2018-06-17T03:43:46.295Z,20.56
2018-06-17T03:46:13.898Z,20.59
2018-06-17T03:48:41.465Z,20.61
2018-06-17T03:51:08.995Z,20.62
2018-06-17T03:53:36.672Z,20.62
2018-06-17T03:56:04.179Z,20.58
2018-06-17T03:58:31.822Z,20.54
2018-06-17T04:00:59.431Z,20.55
2018-06-17T04:03:27.019Z,20.54
2018-06-17T04:05:54.958Z,20.47
2018-06-17T04:08:22.475Z,20.52
2018-06-17T04:10:50.040Z,20.66
2018-06-17T04:13:17.678Z,20.73
2018-06-17T04:15:45.212Z,20.80
2018-06-17T04:18:12.963Z,20.88
2018-06-17T04:20:40.515Z,20.94
2018-06-17T04:23:08.088Z,21.00
2018-06-17T04:25:36.144Z,21.07
2018-06-17T04:28:03.679Z,21.13
2018-06-17T04:30:31.338Z,21.19
2018-06-17T04:32:58.863Z,21.27
2018-06-17T04:35:26.424Z,21.30
2018-06-17T04:37:54.109Z,21.38
2018-06-17T04:40:21.630Z,21.41
2018-06-17T04:42:49.358Z,21.49
2018-06-17T04:45:16.878Z,21.54
2018-06-17T04:47:44.383Z,21.52
2018-06-17T04:50:12.092Z,21.52
2018-06-17T04:52:39.615Z,21.58
2018-06-17T04:55:07.286Z,21.62
2018-06-17T04:57:37.038Z,21.68
2018-06-17T05:00:05.048Z,21.69
2018-06-17T05:02:32.606Z,21.77
2018-06-17T05:05:00.326Z,21.88
2018-06-17T05:07:27.826Z,22.04
2018-06-17T05:09:55.502Z,22.09
2018-06-17T05:12:23.007Z,22.08
2018-06-17T05:14:50.538Z,21.93
2018-06-17T05:17:18.218Z,21.96
2018-06-17T05:19:45.734Z,21.96
2018-06-17T05:22:13.439Z,22.11
2018-06-17T05:24:40.969Z,22.23
2018-06-17T05:27:08.503Z,22.27
2018-06-17T05:29:36.231Z,22.39
2018-06-17T05:32:03.771Z,22.39
2018-06-17T05:34:31.472Z,22.53
2018-06-17T05:36:59.034Z,22.68
2018-06-17T05:39:26.595Z,22.84
2018-06-17T05:41:54.319Z,22.97
2018-06-17T05:44:21.830Z,23.00
2018-06-17T05:46:49.585Z,23.01
2018-06-17T05:49:17.126Z,23.09
2018-06-17T05:51:44.700Z,23.19
2018-06-17T05:54:12.379Z,23.17
2018-06-17T05:56:40.035Z,23.15
2018-06-17T05:59:07.715Z,23.33
2018-06-17T06:01:35.239Z,23.48
2018-06-17T06:04:02.843Z,23.59
2018-06-17T06:06:30.450Z,23.60
2018-06-17T06:08:57.954Z,23.45
2018-06-17T06:11:25.674Z,23.50
2018-06-17T06:13:53.312Z,23.46
2018-06-17T06:16:20.870Z,23.65
2018-06-17T06:18:48.579Z,23.89
2018-06-17T06:21:16.270Z,24.25
2018-06-17T06:23:43.903Z,24.38
2018-06-17T06:26:11.494Z,24.28
2018-06-17T06:28:39.043Z,24.08
2018-06-17T06:31:07.193Z,24.12
2018-06-17T06:33:34.707Z,24.02
2018-06-17T06:36:02.271Z,23.96
2018-06-17T06:38:29.822Z,23.99
2018-06-17T06:40:57.430Z,24.23
2018-06-17T06:43:24.941Z,24.36
2018-06-17T06:45:52.474Z,24.41
2018-06-17T06:48:20.018Z,24.66
2018-06-17T06:50:47.563Z,24.82
2018-06-17T06:53:15.114Z,25.01
2018-06-17T06:55:42.639Z,25.06
2018-06-17T06:58:10.233Z,25.18
2018-06-17T07:00:37.790Z,25.45
2018-06-17T07:03:16.346Z,25.50
2018-06-17T07:05:54.963Z,25.76
2018-06-17T07:10:33.871Z,25.94
2018-06-17T07:13:01.415Z,26.22
2018-06-17T07:15:40.023Z,26.24
2018-06-17T07:18:27.160Z,26.31
2018-06-17T07:20:54.803Z,26.52
2018-06-17T07:23:22.342Z,26.66
2018-06-17T07:26:30.326Z,26.67
2018-06-17T07:29:08.951Z,26.77
2018-06-17T07:31:37.097Z,26.80
2018-06-17T07:34:04.833Z,26.98
2018-06-17T07:36:32.715Z,26.88
2018-06-17T07:39:05.087Z,27.04
2018-06-17T07:41:32.613Z,27.28
2018-06-17T07:44:00.195Z,27.32
2018-06-17T07:46:27.716Z,27.61
2018-06-17T07:49:36.582Z,27.60
2018-06-17T07:52:16.214Z,27.56
2018-06-17T07:54:44.182Z,27.99
2018-06-17T07:57:12.941Z,28.00
2018-06-17T07:59:40.538Z,28.11
2018-06-17T08:02:08.494Z,28.44
2018-06-17T08:04:36.093Z,28.59
2018-06-17T08:07:03.675Z,28.78
2018-06-17T08:09:31.243Z,29.04
2018-06-17T08:11:59.283Z,29.19
2018-06-17T08:14:26.978Z,29.29
2018-06-17T08:16:54.975Z,29.49
2018-06-17T08:19:23.693Z,29.06
2018-06-17T08:21:51.247Z,29.32
2018-06-17T08:24:18.763Z,29.76
2018-06-17T08:26:46.339Z,29.98
2018-06-17T08:29:13.926Z,29.93
2018-06-17T08:31:41.782Z,30.20
2018-06-17T08:34:09.342Z,29.98
2018-06-17T08:36:37.094Z,29.21
2018-06-17T08:39:08.935Z,29.07
2018-06-17T08:41:36.544Z,28.79
2018-06-17T08:44:04.126Z,28.73
2018-06-17T08:46:31.642Z,29.48
2018-06-17T08:48:59.247Z,29.88
2018-06-17T08:51:26.778Z,30.38
2018-06-17T08:53:54.849Z,30.19
2018-06-17T08:56:22.423Z,29.49
2018-06-17T08:58:50.119Z,29.67
2018-06-17T09:01:17.698Z,29.99
2018-06-17T09:03:45.258Z,30.58
2018-06-17T09:06:12.811Z,30.55
2018-06-17T09:08:40.347Z,30.09
2018-06-17T09:11:07.892Z,29.85
2018-06-17T09:13:35.434Z,30.25
2018-06-17T09:16:03.015Z,30.13
2018-06-17T09:18:30.595Z,29.68
2018-06-17T09:20:58.189Z,29.34
2018-06-17T09:23:25.741Z,29.30
2018-06-17T09:25:53.318Z,28.92
2018-06-17T09:28:20.967Z,28.64
2018-06-17T09:30:48.559Z,28.28
2018-06-17T09:33:16.123Z,28.13
2018-06-17T09:35:43.661Z,28.24
2018-06-17T09:38:11.210Z,28.19
2018-06-17T09:40:38.751Z,27.87
2018-06-17T09:43:06.367Z,27.72
2018-06-17T09:45:33.972Z,27.60
2018-06-17T09:48:01.549Z,27.44
2018-06-17T09:50:29.513Z,27.47
2018-06-17T09:52:57.267Z,27.54
2018-06-17T09:55:24.834Z,27.68
2018-06-17T09:57:52.374Z,27.99
2018-06-17T10:00:21.491Z,28.15
2018-06-17T10:02:50.967Z,27.86
2018-06-17T10:05:18.647Z,28.06
2018-06-17T10:07:46.426Z,28.10
2018-06-17T10:10:42.750Z,27.85
2018-06-17T10:13:10.462Z,27.92
2018-06-17T10:15:38.042Z,27.55
2018-06-17T10:18:05.725Z,27.57
2018-06-17T10:20:33.298Z,27.74
2018-06-17T10:23:00.883Z,27.94
2018-06-17T10:25:28.429Z,28.14
2018-06-17T10:27:56.085Z,28.23
2018-06-17T10:30:24.238Z,28.38
2018-06-17T10:32:52.219Z,28.92
2018-06-17T10:35:19.784Z,29.17
2018-06-17T10:37:47.352Z,29.75
2018-06-17T10:40:14.953Z,30.75
2018-06-17T10:42:42.510Z,31.96
2018-06-17T10:45:10.032Z,31.95
2018-06-17T10:47:37.642Z,31.83
2018-06-17T10:50:05.533Z,32.03
2018-06-17T10:52:33.101Z,32.32
2018-06-17T10:55:00.678Z,33.21
2018-06-17T10:57:28.218Z,32.88
2018-06-17T10:59:55.758Z,32.62
2018-06-17T11:02:23.317Z,32.08
2018-06-17T11:04:50.871Z,31.59
2018-06-17T11:07:18.410Z,31.23
2018-06-17T11:09:46.068Z,31.64
2018-06-17T11:12:13.584Z,33.18
2018-06-17T11:14:41.143Z,34.12
2018-06-17T11:17:08.806Z,34.72
2018-06-17T11:19:36.349Z,35.13
2018-06-17T11:22:03.967Z,35.46
2018-06-17T11:24:31.503Z,35.75
2018-06-17T11:26:59.078Z,34.34
2018-06-17T11:29:26.675Z,33.28
2018-06-17T11:31:54.239Z,32.44
2018-06-17T11:34:21.794Z,32.35
2018-06-17T11:36:49.467Z,32.93
2018-06-17T11:39:17.013Z,31.79
2018-06-17T11:41:44.581Z,30.35
2018-06-17T11:44:12.155Z,28.99
2018-06-17T11:46:39.731Z,27.58
2018-06-17T11:49:07.295Z,26.87
2018-06-17T11:51:34.899Z,26.33
2018-06-17T11:54:02.460Z,25.94
2018-06-17T11:56:29.993Z,25.53
2018-06-17T11:58:57.555Z,25.08
2018-06-17T12:01:25.081Z,24.98
2018-06-17T12:03:52.835Z,24.85
2018-06-17T12:06:20.404Z,24.96
2018-06-17T12:08:47.998Z,25.06
2018-06-17T12:11:15.574Z,25.20
2018-06-17T12:13:43.103Z,25.44
2018-06-17T12:16:10.627Z,25.55
2018-06-17T12:18:38.207Z,25.99
2018-06-17T12:21:05.967Z,25.90
2018-06-17T12:23:33.528Z,25.81
2018-06-17T12:26:01.106Z,25.67
2018-06-17T12:28:28.674Z,25.83
2018-06-17T12:30:56.270Z,25.96
2018-06-17T12:33:23.844Z,26.06
2018-06-17T12:35:51.418Z,26.10
2018-06-17T12:38:18.947Z,26.46
2018-06-17T12:40:46.464Z,27.18
2018-06-17T12:43:14.026Z,27.89
2018-06-17T12:45:41.558Z,29.56
2018-06-17T12:48:09.152Z,29.84
2018-06-17T12:50:36.698Z,29.95
2018-06-17T12:53:04.318Z,30.02
2018-06-17T12:55:31.885Z,29.15
2018-06-17T12:57:59.467Z,28.92
2018-06-17T13:00:27.094Z,29.24
2018-06-17T13:02:54.614Z,29.39
2018-06-17T13:05:22.158Z,29.31
2018-06-17T13:07:50.438Z,29.27
2018-06-17T13:10:17.963Z,30.66
2018-06-17T13:12:45.604Z,31.06
2018-06-17T13:15:13.118Z,32.61
2018-06-17T13:17:40.738Z,34.40
2018-06-17T13:20:08.287Z,35.51
2018-06-17T13:22:36.006Z,35.99
2018-06-17T13:25:03.626Z,34.83
2018-06-17T13:27:31.199Z,33.75
2018-06-17T13:29:58.828Z,34.06
2018-06-17T13:32:26.561Z,34.33
2018-06-17T13:34:54.313Z,34.66
2018-06-17T13:37:21.894Z,35.59
2018-06-17T13:39:49.484Z,34.60
2018-06-17T13:42:17.053Z,33.59
2018-06-17T13:44:44.628Z,34.12
2018-06-17T13:47:12.179Z,34.23
2018-06-17T13:49:39.779Z,33.02
2018-06-17T13:52:07.363Z,31.82
2018-06-17T13:54:34.882Z,30.63
2018-06-17T13:57:02.475Z,29.61
2018-06-17T13:59:29.992Z,29.22
2018-06-17T14:01:57.554Z,29.07
2018-06-17T14:04:25.085Z,28.62
2018-06-17T14:06:52.748Z,28.13
2018-06-17T14:09:20.403Z,27.95
2018-06-17T14:11:48.156Z,27.84
2018-06-17T14:14:15.869Z,27.54
2018-06-17T14:16:43.732Z,27.04
2018-06-17T14:19:11.587Z,26.50
2018-06-17T14:21:39.357Z,26.06
2018-06-17T14:24:07.247Z,25.75
2018-06-17T14:26:36.264Z,25.69
2018-06-17T14:29:04.022Z,25.12
2018-06-17T14:31:31.725Z,24.68
2018-06-17T14:33:59.475Z,24.21
2018-06-17T14:36:27.431Z,23.81
2018-06-17T14:38:55.288Z,23.33
2018-06-17T14:41:22.953Z,22.67
2018-06-17T14:43:56.171Z,22.35
2018-06-17T14:46:29.427Z,21.81
2018-06-17T14:49:02.551Z,21.76
2018-06-17T14:51:35.686Z,21.90
2018-06-17T14:54:03.542Z,22.03
2018-06-17T14:56:31.346Z,21.79
2018-06-17T14:58:59.116Z,22.03
2018-06-17T15:01:26.807Z,22.26
2018-06-17T15:03:54.557Z,22.48
2018-06-17T15:06:22.132Z,22.67
2018-06-17T15:08:50.156Z,22.85
2018-06-17T15:11:17.900Z,23.08
2018-06-17T15:13:45.629Z,23.26
2018-06-17T15:16:13.423Z,23.46
2018-06-17T15:18:41.195Z,23.55
2018-06-17T15:21:08.875Z,23.49
2018-06-17T15:23:36.566Z,23.21
2018-06-17T15:26:04.271Z,22.87
2018-06-17T15:28:32.003Z,22.66
2018-06-17T15:31:12.059Z,22.55
2018-06-17T15:33:46.552Z,22.48
2018-06-17T15:36:26.609Z,22.50
2018-06-17T15:39:08.720Z,22.46
2018-06-17T15:41:38.280Z,22.49
2018-06-17T15:44:10.843Z,22.44
2018-06-17T15:46:47.351Z,22.42
2018-06-17T15:49:18.036Z,22.41
2018-06-17T15:51:47.252Z,22.42
2018-06-17T15:54:15.128Z,22.52
2018-06-17T15:56:42.846Z,22.54
2018-06-17T15:59:14.722Z,22.55
2018-06-17T16:01:44.051Z,22.47
2018-06-17T16:04:12.351Z,22.50
2018-06-17T16:06:40.814Z,22.54
2018-06-17T16:09:10.215Z,22.65
2018-06-17T16:11:43.319Z,22.63
2018-06-17T16:14:16.473Z,22.72
2018-06-17T16:16:49.817Z,22.62
2018-06-17T16:19:22.922Z,22.69
2018-06-17T16:21:50.618Z,22.78
2018-06-17T16:24:18.334Z,22.90
2018-06-17T16:26:45.999Z,22.96
2018-06-17T16:29:13.791Z,23.05
2018-06-17T16:31:41.481Z,23.06
2018-06-17T16:34:09.250Z,23.01
2018-06-17T16:36:37.220Z,22.99
2018-06-17T16:39:07.458Z,22.95
2018-06-17T16:41:35.179Z,23.00
2018-06-17T16:44:02.795Z,23.07
2018-06-17T16:46:30.331Z,23.13
2018-06-17T16:48:58.044Z,23.19
2018-06-17T16:51:31.262Z,23.18
2018-06-17T16:54:04.426Z,23.19
2018-06-17T16:56:37.503Z,23.17
2018-06-17T16:59:11.324Z,23.25
2018-06-17T17:01:38.930Z,23.25
2018-06-17T17:04:06.750Z,23.24
2018-06-17T17:06:34.401Z,23.24
2018-06-17T17:09:02.306Z,23.33
2018-06-17T17:11:29.901Z,23.34
2018-06-17T17:13:57.623Z,23.35
2018-06-17T17:16:25.588Z,23.38
2018-06-17T17:18:54.325Z,23.32
2018-06-17T17:21:21.866Z,23.31
2018-06-17T17:23:49.926Z,23.19
2018-06-17T17:26:17.646Z,23.16
2018-06-17T17:28:45.211Z,23.01
2018-06-17T17:31:13.107Z,22.85
2018-06-17T17:33:46.140Z,22.70
2018-06-17T17:36:19.446Z,22.53
2018-06-17T17:38:52.433Z,22.60
2018-06-17T17:41:19.984Z,22.58
2018-06-17T17:43:47.526Z,22.50
2018-06-17T17:46:21.948Z,22.51
2018-06-17T17:48:49.614Z,22.56
2018-06-17T17:51:17.174Z,22.53
2018-06-17T17:53:44.819Z,22.43
2018-06-17T17:56:12.418Z,22.41
2018-06-17T17:58:40.158Z,22.23
2018-06-17T18:01:07.698Z,22.11
2018-06-17T18:03:35.353Z,22.15
2018-06-17T18:06:02.902Z,22.17
2018-06-17T18:08:30.479Z,22.24
2018-06-17T18:10:58.164Z,22.26
2018-06-17T18:13:25.818Z,22.33
2018-06-17T18:15:53.342Z,22.34
2018-06-17T18:18:20.942Z,22.38
2018-06-17T18:20:48.567Z,22.37
2018-06-17T18:23:16.122Z,22.42
2018-06-17T18:25:49.678Z,22.51
2018-06-17T18:28:22.802Z,22.54
2018-06-17T18:31:00.192Z,22.61
2018-06-17T18:33:33.361Z,22.62
2018-06-17T18:36:08.359Z,22.63
2018-06-17T18:38:36.975Z,22.63
2018-06-17T18:41:04.583Z,22.58
2018-06-17T18:43:32.475Z,22.46
2018-06-17T18:46:00.233Z,22.45
2018-06-17T18:48:28.090Z,22.40
2018-06-17T18:50:55.886Z,22.30
2018-06-17T18:53:25.014Z,22.26
2018-06-17T18:55:52.792Z,22.24
2018-06-17T18:58:20.813Z,22.19
2018-06-17T19:00:49.369Z,22.15
2018-06-17T19:03:16.930Z,22.10
2018-06-17T19:05:44.812Z,22.04
2018-06-17T19:10:19.754Z,21.95
2018-06-17T19:12:52.864Z,21.87
2018-06-17T19:15:26.257Z,21.82
2018-06-17T19:17:59.350Z,21.77
2018-06-17T19:20:27.101Z,21.71
2018-06-17T19:22:54.827Z,21.74
2018-06-17T19:25:22.603Z,21.73
2018-06-17T19:27:50.334Z,21.64
2018-06-17T19:30:18.237Z,21.62
2018-06-17T19:32:45.981Z,21.61
2018-06-17T19:35:13.842Z,21.62
2018-06-17T19:37:41.582Z,21.62
2018-06-17T19:40:09.146Z,21.59
2018-06-17T19:42:36.742Z,21.57
2018-06-17T19:45:04.380Z,21.54
2018-06-17T19:47:31.946Z,21.55
2018-06-17T19:50:05.204Z,21.55
2018-06-17T19:52:38.246Z,21.53
2018-06-17T19:55:11.607Z,21.51
2018-06-17T19:57:44.548Z,21.49
2018-06-17T20:00:17.686Z,21.48
2018-06-17T20:02:45.239Z,21.45
2018-06-17T20:05:12.791Z,21.40
2018-06-17T20:07:40.467Z,21.40
2018-06-17T20:10:08.051Z,21.42
2018-06-17T20:12:35.686Z,21.38
2018-06-17T20:15:03.632Z,21.35
2018-06-17T20:17:31.571Z,21.37
2018-06-17T20:19:59.106Z,21.36
2018-06-17T20:22:26.871Z,21.36
2018-06-17T20:24:54.403Z,21.35
2018-06-17T20:27:21.929Z,21.33
2018-06-17T20:29:49.692Z,21.30
2018-06-17T20:32:22.858Z,21.27
2018-06-17T20:34:55.923Z,21.28
2018-06-17T20:37:29.016Z,21.28
2018-06-17T20:40:02.150Z,21.26
2018-06-17T20:42:35.062Z,21.24
2018-06-17T20:45:02.998Z,21.28
2018-06-17T20:47:30.535Z,21.26
2018-06-17T20:49:58.107Z,21.29
2018-06-17T20:52:25.819Z,21.28
2018-06-17T20:54:53.345Z,21.28
2018-06-17T20:57:20.947Z,21.18
2018-06-17T20:59:48.487Z,21.08
2018-06-17T21:02:16.039Z,21.01
2018-06-17T21:04:43.644Z,20.97
2018-06-17T21:07:11.207Z,20.90
2018-06-17T21:09:38.933Z,20.83
2018-06-17T21:12:06.509Z,20.81
2018-06-17T21:14:34.192Z,20.77
2018-06-17T21:17:01.872Z,20.73
2018-06-17T21:19:34.892Z,20.70
2018-06-17T21:22:08.136Z,20.64
2018-06-17T21:24:41.332Z,20.57
2018-06-17T21:27:14.486Z,20.54
2018-06-17T21:29:42.046Z,20.48
2018-06-17T21:32:09.847Z,20.45
2018-06-17T21:34:37.567Z,20.39
2018-06-17T21:37:05.114Z,20.41
2018-06-17T21:39:32.714Z,20.33
2018-06-17T21:42:00.296Z,20.28
2018-06-17T21:44:27.828Z,20.22
2018-06-17T21:46:55.448Z,20.18
2018-06-17T21:49:23.122Z,20.14
2018-06-17T21:51:50.699Z,20.11
2018-06-17T21:54:18.334Z,20.07
2018-06-17T21:56:45.908Z,20.00
2018-06-17T21:59:13.440Z,19.84
2018-06-17T22:01:41.004Z,19.81
2018-06-17T22:04:14.217Z,19.81
2018-06-17T22:06:41.834Z,19.79
2018-06-17T22:09:14.963Z,19.79
2018-06-17T22:11:48.488Z,19.76
2018-06-17T22:14:21.728Z,19.75
2018-06-17T22:16:54.913Z,19.71
2018-06-17T22:19:22.686Z,19.71
2018-06-17T22:21:50.310Z,19.66
2018-06-17T22:24:18.081Z,19.62
2018-06-17T22:26:45.696Z,19.57
2018-06-17T22:29:13.292Z,19.55
2018-06-17T22:31:40.998Z,19.51
2018-06-17T22:34:08.587Z,19.49
2018-06-17T22:36:36.323Z,19.49
2018-06-17T22:39:05.942Z,19.42
2018-06-17T22:41:33.949Z,19.41
2018-06-17T22:44:01.575Z,19.42
2018-06-17T22:46:29.507Z,19.34
2018-06-17T22:48:57.066Z,19.29
2018-06-17T22:51:24.710Z,19.29
2018-06-17T22:54:03.598Z,19.23
2018-06-17T22:56:36.732Z,19.12
2018-06-17T22:59:09.965Z,19.06
2018-06-17T23:01:43.175Z,19.05
2018-06-17T23:04:16.611Z,19.05
2018-06-17T23:06:49.710Z,19.01
2018-06-17T23:09:23.003Z,18.98
2018-06-17T23:11:50.653Z,18.96
2018-06-17T23:14:18.328Z,18.95
2018-06-17T23:16:46.324Z,18.92
2018-06-17T23:19:13.852Z,18.89
2018-06-17T23:21:41.585Z,18.86
2018-06-17T23:24:09.503Z,18.82
2018-06-17T23:26:37.068Z,18.86
2018-06-17T23:29:05.033Z,18.85
2018-06-17T23:31:32.750Z,18.84
2018-06-17T23:34:00.368Z,18.81
2018-06-17T23:36:28.364Z,18.81
2018-06-17T23:38:57.042Z,18.75
2018-06-17T23:41:24.603Z,18.70
2018-06-17T23:43:52.502Z,18.67
2018-06-17T23:46:25.683Z,18.62
2018-06-17T23:48:59.105Z,18.59
2018-06-17T23:51:32.119Z,18.58
2018-06-17T23:54:05.438Z,18.55
2018-06-17T23:56:33.464Z,18.50
2018-06-17T23:59:01.010Z,18.47
